KSVH/SVH METAR and TAF weather

Enter ICAO airport designator
Station Type Date Time Source
KSVH METAR 2019/04/26 04:00 UTC NOAA

KSVH 260400Z AUTO 18003KT 10SM OVC060 20/16 A2982 RMK AO2 T01950155


Station Type Date Time Source
KSVH Decoded METAR 2019/04/26 04:00 UTC NOAA

Statesville, Statesville Municipal Airport, NC, United States (KSVH) 35-45-55N 080-57-24W
Apr 26, 2019 - 12:00 AM EDT / 2019.04.26 0400 UTC
Wind: from the S (180 degrees) at 3 MPH (3 KT):0
Visibility: 10 mile(s):0
Sky conditions: overcast
Temperature: 67.1 F (19.5 C)
Dew Point: 59.9 F (15.5 C)
Relative Humidity: 77%
Pressure (altimeter): 29.82 in. Hg (1009 hPa)
ob: KSVH 260400Z AUTO 18003KT 10SM OVC060 20/16 A2982 RMK AO2 T01950155
cycle: 4

Station Type Date Time Source
KSVH TAF UTC NOAA

Error!

Example: see airport list